Time;durP1;ratioP1;P1;durP2;ratioP2;P2;SDS_P1;SDS_P2;PMS_P1;PMS_P2;Temp;Humidity;BMP_temperature;BMP_pressure;BME280_temperature;BME280_humidity;BME280_pressure;Samples;Min_cycle;Max_cycle;Signal;HPM_P1;HPM_P2
2022/05/14 00:00:58;;;;;;;7.90;7.18;;;;;;;17.97;54.93;94825.41;5118191;28;20211;-68
2022/05/14 00:03:26;;;;;;;7.22;6.63;;;;;;;17.92;55.23;94818.25;5117713;28;20248;-68
2022/05/14 00:05:54;;;;;;;7.55;6.95;;;;;;;17.88;55.52;94825.06;5118110;28;20226;-68
2022/05/14 00:08:22;;;;;;;15.23;13.73;;;;;;;17.88;55.97;94816.69;5117785;28;20215;-68
2022/05/14 00:13:34;;;;;;;8.13;7.43;;;;;;;17.83;56.10;94814.31;5117969;28;20168;-68
2022/05/14 00:16:03;;;;;;;10.45;8.77;;;;;;;17.78;56.13;94801.59;5117612;28;20188;-68
2022/05/14 00:18:30;;;;;;;7.65;6.90;;;;;;;17.75;56.73;94814.34;5116452;28;20220;-68
2022/05/14 00:20:57;;;;;;;7.63;7.03;;;;;;;17.73;56.28;94807.56;5117446;28;20211;-68
2022/05/14 00:23:24;;;;;;;7.53;6.93;;;;;;;17.73;56.47;94804.78;5116672;28;20191;-68
2022/05/14 00:25:51;;;;;;;7.88;7.13;;;;;;;17.76;56.42;94809.59;5116174;28;20187;-67
2022/05/14 00:28:19;;;;;;;7.90;7.20;;;;;;;17.79;56.10;94806.78;5117290;28;20192;-68
2022/05/14 00:30:46;;;;;;;6.80;6.25;;;;;;;17.80;55.89;94810.38;5116395;28;20195;-67
2022/05/14 00:33:14;;;;;;;7.63;6.85;;;;;;;17.81;55.56;94803.56;5116480;28;20203;-67
2022/05/14 00:35:41;;;;;;;8.15;7.35;;;;;;;17.80;55.71;94804.78;5117190;28;20222;-68
2022/05/14 00:38:09;;;;;;;8.10;7.30;;;;;;;17.78;55.76;94807.16;5116713;28;20199;-68
2022/05/14 00:40:38;;;;;;;7.20;6.60;;;;;;;17.77;55.76;94798.00;5115780;28;20230;-68
2022/05/14 00:43:05;;;;;;;7.80;7.15;;;;;;;17.78;55.79;94802.38;5116095;28;20202;-68
2022/05/14 00:45:34;;;;;;;8.63;7.82;;;;;;;17.74;56.20;94803.56;5116118;28;20204;-68
2022/05/14 00:48:01;;;;;;;7.88;7.18;;;;;;;17.67;56.21;94798.03;5115918;28;20199;-68
2022/05/14 00:50:35;;;;;;;8.38;7.28;;;;;;;17.58;56.44;94800.47;5116480;28;20509;-68
2022/05/14 00:53:06;;;;;;;7.57;6.97;;;;;;;17.49;56.71;94803.69;5116082;28;20183;-68
2022/05/14 00:55:33;;;;;;;7.75;7.05;;;;;;;17.45;57.21;94802.91;5116959;28;20199;-68
2022/05/14 00:58:02;;;;;;;7.85;7.15;;;;;;;17.43;57.39;94799.72;5116063;28;20199;-68
2022/05/14 01:00:29;;;;;;;8.35;7.30;;;;;;;17.42;57.46;94804.50;5116912;28;20180;-68
2022/05/14 01:02:56;;;;;;;7.90;7.15;;;;;;;17.40;57.40;94795.75;5116983;28;20192;-68
2022/05/14 01:05:23;;;;;;;8.43;7.25;;;;;;;17.33;56.95;94795.78;5117879;28;20177;-68
2022/05/14 01:07:54;;;;;;;8.50;7.80;;;;;;;17.22;57.07;94798.59;5118042;28;20200;-68
2022/05/14 01:10:23;;;;;;;8.05;7.30;;;;;;;17.14;57.51;94796.22;5117402;28;20194;-68
2022/05/14 01:13:02;;;;;;;7.75;7.05;;;;;;;17.05;57.65;94803.00;5117172;28;20211;-68
2022/05/14 01:15:40;;;;;;;7.88;7.18;;;;;;;17.00;57.92;94802.63;5117628;28;20198;-68
2022/05/14 01:18:07;;;;;;;7.85;7.13;;;;;;;16.94;58.04;94796.66;5118277;28;20187;-68
2022/05/14 01:20:35;;;;;;;7.88;7.07;;;;;;;16.88;58.23;94805.81;5118129;28;20184;-68
2022/05/14 01:23:15;;;;;;;7.82;7.22;;;;;;;16.84;58.44;94801.03;5116665;28;20223;-68
2022/05/14 01:28:33;;;;;;;8.65;7.75;;;;;;;16.87;58.61;94798.66;5115813;28;20184;-68
2022/05/14 01:31:01;;;;;;;9.25;8.10;;;;;;;16.84;58.76;94803.81;5115374;28;20199;-68
2022/05/14 01:33:29;;;;;;;7.78;7.07;;;;;;;16.78;58.62;94799.88;5115223;28;20557;-67
2022/05/14 01:35:56;;;;;;;7.82;7.13;;;;;;;16.75;58.73;94791.53;5114753;28;20710;-67
2022/05/14 01:38:26;;;;;;;8.43;7.40;;;;;;;16.74;59.12;94790.72;5116869;28;20204;-68
2022/05/14 01:40:53;;;;;;;8.25;7.50;;;;;;;16.74;59.25;94792.69;5116753;28;20227;-68
2022/05/14 01:43:20;;;;;;;8.85;8.02;;;;;;;16.69;59.51;94777.16;5117609;28;20202;-68
2022/05/14 01:45:48;;;;;;;7.75;7.15;;;;;;;16.67;59.53;94782.34;5116248;28;20191;-68
2022/05/14 01:48:15;;;;;;;8.43;7.72;;;;;;;16.68;59.74;94772.78;5116346;28;20188;-68
2022/05/14 01:50:42;;;;;;;8.32;7.45;;;;;;;16.68;59.83;94777.56;5115715;28;20183;-68
2022/05/14 01:53:10;;;;;;;8.30;7.40;;;;;;;16.62;60.06;94779.94;5115054;28;20203;-68
2022/05/14 01:55:37;;;;;;;7.90;7.15;;;;;;;16.60;59.98;94777.56;5115305;28;20210;-68
2022/05/14 01:58:36;;;;;;;8.15;7.45;;;;;;;16.57;59.75;94778.38;5114515;28;20211;-68
2022/05/14 02:00:54;;;;;;;8.52;7.65;;;;;;;16.52;60.22;94777.97;5115021;28;20294;-68
2022/05/14 02:03:21;;;;;;;11.20;8.65;;;;;;;16.53;60.17;94780.34;5115360;28;20192;-68
2022/05/14 02:05:48;;;;;;;10.00;8.18;;;;;;;16.53;60.03;94777.56;5114466;28;20576;-68
2022/05/14 02:08:15;;;;;;;9.75;7.47;;;;;;;16.46;60.28;94776.78;5114633;28;20533;-68
2022/05/14 02:10:42;;;;;;;9.68;8.07;;;;;;;16.39;60.49;94783.16;5114727;28;20199;-68
2022/05/14 02:13:10;;;;;;;8.77;7.97;;;;;;;16.34;60.49;94780.78;5115430;28;20203;-68
2022/05/14 02:15:37;;;;;;;8.23;7.53;;;;;;;16.33;60.39;94782.72;5115111;28;20203;-68
2022/05/14 02:18:06;;;;;;;8.40;7.55;;;;;;;16.29;60.79;94784.72;5115726;28;20188;-68
2022/05/14 02:20:33;;;;;;;8.77;7.93;;;;;;;16.28;60.63;94780.34;5115274;28;20204;-68
2022/05/14 02:23:00;;;;;;;8.52;7.72;;;;;;;16.30;60.86;94785.50;5114473;28;20608;-68
2022/05/14 02:25:26;;;;;;;8.75;7.95;;;;;;;16.32;60.91;94783.94;5115179;28;20192;-68
2022/05/14 02:27:53;;;;;;;9.32;8.43;;;;;;;16.27;61.02;94778.78;5115609;28;20195;-68
2022/05/14 02:30:20;;;;;;;8.32;7.63;;;;;;;16.21;61.41;94783.13;5115123;28;20180;-68
2022/05/14 02:32:47;;;;;;;8.95;8.15;;;;;;;16.14;61.43;94783.13;5114419;28;20196;-68
2022/05/14 02:35:15;;;;;;;8.35;7.55;;;;;;;16.11;61.44;94783.91;5114766;28;20273;-68
2022/05/14 02:37:42;;;;;;;9.60;8.25;;;;;;;16.10;61.57;94782.31;5114765;28;20207;-68
2022/05/14 02:40:10;;;;;;;9.05;8.07;;;;;;;16.10;61.43;94776.75;5115712;28;20230;-68
2022/05/14 02:42:36;;;;;;;9.00;8.30;;;;;;;16.08;61.67;94774.34;5114609;28;20203;-68
2022/05/14 02:45:04;;;;;;;10.30;8.45;;;;;;;16.04;61.77;94778.34;5115812;28;20180;-68
2022/05/14 02:47:31;;;;;;;10.93;8.45;;;;;;;15.96;61.65;94780.31;5114590;28;20199;-68
2022/05/14 02:49:58;;;;;;;10.57;9.57;;;;;;;15.95;61.93;94786.28;5115396;28;20249;-69
2022/05/14 02:52:26;;;;;;;9.43;8.52;;;;;;;15.93;61.58;94789.44;5115530;28;20197;-69
2022/05/14 02:54:53;;;;;;;10.02;9.00;;;;;;;15.91;62.07;94785.47;5115801;28;20667;-69
2022/05/14 02:57:20;;;;;;;10.15;9.23;;;;;;;15.90;62.22;94787.44;5115722;28;20184;-69
2022/05/14 02:59:47;;;;;;;10.00;9.02;;;;;;;15.93;62.07;94783.09;5114631;28;20223;-69
2022/05/14 03:02:14;;;;;;;9.30;8.25;;;;;;;15.94;62.18;94790.22;5115352;28;20261;-69
2022/05/14 03:04:44;;;;;;;9.68;8.63;;;;;;;15.88;62.44;94789.84;5114153;28;20199;-69
2022/05/14 03:07:12;;;;;;;9.27;8.38;;;;;;;15.81;62.57;94796.16;5117005;28;20635;-69
2022/05/14 03:09:41;;;;;;;8.93;7.93;;;;;;;15.82;62.61;94794.19;5118105;28;20627;-69
2022/05/14 03:12:11;;;;;;;9.85;8.75;;;;;;;15.80;62.75;94796.56;5118736;28;20529;-69
2022/05/14 03:14:38;;;;;;;13.18;8.80;;;;;;;15.78;62.60;94799.72;5117828;28;20211;-69
2022/05/14 03:17:05;;;;;;;10.35;8.35;;;;;;;15.71;62.71;94796.94;5118545;28;20191;-68
2022/05/14 03:19:32;;;;;;;9.85;8.80;;;;;;;15.65;62.80;94795.72;5119042;28;20208;-68
2022/05/14 03:21:59;;;;;;;9.75;8.73;;;;;;;15.60;63.12;94794.09;5118536;28;20290;-69
2022/05/14 03:24:26;;;;;;;11.10;9.13;;;;;;;15.61;63.00;94800.44;5118852;28;20217;-69
2022/05/14 03:26:54;;;;;;;12.00;8.05;;;;;;;15.59;63.22;94800.03;5118829;28;20192;-69
2022/05/14 03:29:21;;;;;;;10.20;9.00;;;;;;;15.55;63.14;94796.47;5119237;28;20180;-69
2022/05/14 03:31:48;;;;;;;12.13;9.23;;;;;;;15.56;63.34;94803.59;5118969;28;20206;-69
2022/05/14 03:34:17;;;;;;;9.98;8.98;;;;;;;15.61;63.25;94798.47;5118154;28;20249;-68
2022/05/14 03:36:44;;;;;;;9.68;8.57;;;;;;;15.60;63.45;94805.19;5119131;28;20202;-68
2022/05/14 03:39:11;;;;;;;10.93;8.88;;;;;;;15.54;63.49;94797.63;5119975;28;20225;-69
2022/05/14 03:41:38;;;;;;;10.95;9.45;;;;;;;15.52;63.42;94803.59;5119638;28;20243;-69
2022/05/14 03:44:06;;;;;;;10.05;9.05;;;;;;;15.51;63.66;94807.56;5120941;28;20187;-69
2022/05/14 03:46:33;;;;;;;9.75;8.75;;;;;;;15.55;63.54;94807.56;5120170;28;20217;-69
2022/05/14 03:49:00;;;;;;;10.07;9.02;;;;;;;15.53;63.73;94802.41;5120737;28;20206;-69
2022/05/14 03:51:27;;;;;;;11.32;9.75;;;;;;;15.50;63.68;94808.72;5119747;28;20199;-68
2022/05/14 03:53:54;;;;;;;13.77;10.80;;;;;;;15.50;63.51;94805.94;5119892;28;20241;-69
2022/05/14 03:56:21;;;;;;;11.38;10.30;;;;;;;15.54;63.59;94803.19;5118282;28;20294;-69
2022/05/14 03:58:48;;;;;;;14.77;10.73;;;;;;;15.57;63.61;94810.75;5118787;28;20202;-69
2022/05/14 04:01:16;;;;;;;11.23;10.07;;;;;;;15.61;63.98;94814.34;5116872;28;20290;-69
2022/05/14 04:03:43;;;;;;;11.95;10.35;;;;;;;15.61;63.99;94811.56;5118303;28;20184;-69
2022/05/14 04:06:10;;;;;;;11.85;10.07;;;;;;;15.59;64.02;94817.50;5119268;28;20208;-69
2022/05/14 04:08:36;;;;;;;14.63;11.60;;;;;;;15.61;63.91;94819.88;5118516;28;20210;-69
2022/05/14 04:11:03;;;;;;;12.60;11.40;;;;;;;15.66;63.88;94836.25;5119802;28;20205;-69
2022/05/14 04:13:30;;;;;;;12.98;11.60;;;;;;;15.73;63.56;94835.47;5119527;28;20180;-69
2022/05/14 04:15:57;;;;;;;15.70;12.55;;;;;;;15.76;63.80;94832.72;5117865;28;20290;-69
2022/05/14 04:18:26;;;;;;;17.15;14.65;;;;;;;15.78;63.66;94829.53;5118031;28;20199;-69
2022/05/14 04:20:54;;;;;;;26.42;23.95;;;;;;;15.78;63.69;94833.09;5118203;28;20200;-69
2022/05/14 04:23:21;;;;;;;26.80;24.50;;;;;;;15.87;63.51;94835.53;5117543;28;20191;-69
2022/05/14 04:25:50;;;;;;;19.88;18.00;;;;;;;15.94;63.28;94840.28;5117892;28;20264;-69
2022/05/14 04:28:17;;;;;;;15.38;13.80;;;;;;;16.01;63.11;94834.75;5117720;28;20249;-69
2022/05/14 04:30:44;;;;;;;14.25;12.75;;;;;;;16.04;62.84;94840.31;5116801;28;20196;-69
2022/05/14 04:33:11;;;;;;;13.40;12.10;;;;;;;16.08;62.67;94846.69;5118075;28;20195;-69
2022/05/14 04:35:39;;;;;;;14.65;13.15;;;;;;;16.13;62.54;94856.66;5118325;28;20245;-69
2022/05/14 04:38:06;;;;;;;14.35;12.80;;;;;;;16.16;62.26;94846.69;5117803;28;20230;-69
2022/05/14 04:40:33;;;;;;;13.38;12.07;;;;;;;16.19;62.08;94854.28;5117023;28;20227;-69
2022/05/14 04:43:00;;;;;;;12.52;11.15;;;;;;;16.19;62.10;94857.06;5116813;28;20199;-69
2022/05/14 04:45:29;;;;;;;14.90;11.70;;;;;;;16.19;62.37;94868.19;5117011;28;20192;-69
2022/05/14 04:47:56;;;;;;;13.15;11.85;;;;;;;16.20;62.47;94859.47;5117782;28;20290;-69
2022/05/14 04:50:22;;;;;;;13.48;12.10;;;;;;;16.18;62.33;94859.03;5118289;28;20191;-68
2022/05/14 04:52:51;;;;;;;14.00;12.60;;;;;;;16.18;62.51;94861.81;5116800;28;20196;-68
2022/05/14 04:55:18;;;;;;;14.77;11.57;;;;;;;16.19;62.59;94865.41;5117238;28;20199;-69
2022/05/14 04:57:45;;;;;;;13.13;11.68;;;;;;;16.18;62.55;94872.94;5118102;28;20199;-68
2022/05/14 05:00:13;;;;;;;12.85;11.65;;;;;;;16.17;62.59;94868.59;5117338;28;20200;-68
2022/05/14 05:05:24;;;;;;;13.77;11.65;;;;;;;16.26;62.26;94865.41;5116743;28;20202;-68
2022/05/14 05:07:52;;;;;;;15.10;13.50;;;;;;;16.28;62.24;94868.59;5116281;28;20557;-68
2022/05/14 05:10:19;;;;;;;13.35;12.10;;;;;;;16.31;62.23;94867.81;5117380;28;20184;-67
2022/05/14 05:12:46;;;;;;;13.50;12.20;;;;;;;16.39;62.35;94874.19;5116926;28;20180;-67
2022/05/14 05:15:13;;;;;;;14.10;12.35;;;;;;;16.43;62.39;94866.66;5117163;28;20187;-68
2022/05/14 05:17:40;;;;;;;13.98;12.13;;;;;;;16.48;62.21;94871.81;5115895;28;20576;-68
2022/05/14 05:20:09;;;;;;;15.63;14.23;;;;;;;16.53;62.43;94871.44;5115324;28;20219;-68
2022/05/14 05:22:37;;;;;;;18.83;16.88;;;;;;;16.57;62.18;94870.25;5115602;28;20225;-69
2022/05/14 05:25:06;;;;;;;17.67;15.98;;;;;;;16.60;61.99;94868.66;5116683;28;20196;-67
2022/05/14 05:27:33;;;;;;;17.63;15.32;;;;;;;16.63;61.95;94876.22;5117515;28;20194;-67
2022/05/14 05:30:00;;;;;;;19.60;15.27;;;;;;;16.64;62.13;94872.25;5116910;28;20191;-68
2022/05/14 05:32:26;;;;;;;14.52;13.07;;;;;;;16.71;61.74;94875.03;5115989;28;20199;-69
2022/05/14 05:34:53;;;;;;;15.30;13.80;;;;;;;16.79;61.95;94881.44;5117805;28;20180;-66
2022/05/14 05:37:21;;;;;;;14.88;13.48;;;;;;;16.84;61.94;94881.81;5116426;28;20241;-67
2022/05/14 05:39:47;;;;;;;16.45;14.38;;;;;;;16.94;61.45;94876.66;5115904;28;20203;-68
2022/05/14 05:42:15;;;;;;;16.48;14.88;;;;;;;17.02;61.34;94879.03;5114883;28;20238;-67
2022/05/14 05:44:42;;;;;;;17.35;15.65;;;;;;;17.10;61.62;94882.59;5115894;28;20195;-67
2022/05/14 05:47:09;;;;;;;17.13;15.43;;;;;;;17.16;61.73;94883.00;5114930;28;20191;-67
2022/05/14 05:49:38;;;;;;;16.45;14.82;;;;;;;17.23;61.58;94886.56;5115387;28;20199;-65
2022/05/14 05:52:05;;;;;;;15.98;14.32;;;;;;;17.29;61.81;94876.63;5115648;28;20204;-64
2022/05/14 05:57:17;;;;;;;15.65;14.05;;;;;;;17.44;61.16;94882.97;5114965;28;20335;-65
2022/05/14 05:59:44;;;;;;;14.82;13.35;;;;;;;17.50;61.10;94889.72;5115786;28;20195;-65
2022/05/14 06:02:11;;;;;;;12.98;11.75;;;;;;;17.63;61.09;94883.72;5114957;28;20196;-64
2022/05/14 06:04:38;;;;;;;12.73;11.43;;;;;;;17.74;61.24;94888.03;5115716;28;20180;-64
2022/05/14 06:07:05;;;;;;;11.65;10.10;;;;;;;17.86;60.76;94883.25;5114785;28;20195;-64
2022/05/14 06:09:32;;;;;;;11.85;10.65;;;;;;;17.95;60.90;94880.84;5115312;28;20222;-65
2022/05/14 06:11:59;;;;;;;12.07;10.98;;;;;;;18.03;60.74;94877.59;5115775;28;20183;-65
2022/05/14 06:14:27;;;;;;;11.60;10.52;;;;;;;18.13;60.60;94880.75;5115795;28;20184;-65
2022/05/14 06:16:54;;;;;;;10.13;9.20;;;;;;;18.21;60.15;94882.31;5114967;28;20188;-64
2022/05/14 06:19:21;;;;;;;9.75;8.90;;;;;;;18.31;60.30;94889.03;5114710;28;20520;-64
2022/05/14 06:21:48;;;;;;;9.27;8.32;;;;;;;18.36;59.75;94894.97;5115716;28;20230;-64
2022/05/14 06:24:15;;;;;;;11.48;8.00;;;;;;;18.43;59.70;94891.34;5115300;28;20192;-64
2022/05/14 06:26:42;;;;;;;9.77;8.70;;;;;;;18.50;59.39;94889.31;5115810;28;20184;-64
2022/05/14 06:29:09;;;;;;;9.80;8.77;;;;;;;18.56;59.73;94892.47;5114876;28;20191;-64
2022/05/14 06:31:38;;;;;;;10.73;9.60;;;;;;;18.63;59.47;94895.22;5114660;28;20198;-65
2022/05/14 06:34:06;;;;;;;9.98;9.07;;;;;;;18.71;59.09;94896.78;5115209;28;20665;-65
2022/05/14 06:36:33;;;;;;;10.27;9.25;;;;;;;18.81;58.97;94892.34;5115822;28;20176;-65
2022/05/14 06:39:00;;;;;;;10.07;9.07;;;;;;;18.86;58.78;94880.72;5115517;28;20192;-66
2022/05/14 06:41:27;;;;;;;9.65;8.82;;;;;;;18.90;58.56;94892.66;5116092;28;20301;-66
2022/05/14 06:43:54;;;;;;;10.40;9.38;;;;;;;18.92;58.61;94883.88;5119369;28;20184;-66
2022/05/14 06:46:21;;;;;;;11.02;9.52;;;;;;;18.95;58.18;94886.66;5117997;28;20203;-66
2022/05/14 06:48:49;;;;;;;10.63;9.70;;;;;;;18.98;58.18;94891.38;5118092;28;20192;-65
2022/05/14 06:51:19;;;;;;;10.55;9.25;;;;;;;19.00;58.18;94896.59;5119438;28;20176;-66
2022/05/14 06:53:46;;;;;;;9.95;9.07;;;;;;;19.04;57.73;94900.13;5118382;28;20215;-67
2022/05/14 06:56:15;;;;;;;10.77;9.60;;;;;;;19.12;57.68;94898.06;5119608;28;20210;-66
2022/05/14 06:58:43;;;;;;;10.73;9.50;;;;;;;19.18;58.35;94897.22;5118852;28;20615;-67
2022/05/14 07:01:10;;;;;;;9.88;9.07;;;;;;;19.29;58.54;94899.94;5118498;28;20215;-66
2022/05/14 07:06:40;;;;;;;9.93;9.00;;;;;;;19.46;57.87;94907.38;5118176;28;20192;-67
2022/05/14 07:09:09;;;;;;;10.23;9.32;;;;;;;19.54;57.78;94901.69;5118234;28;20206;-66
2022/05/14 07:11:37;;;;;;;9.80;8.82;;;;;;;19.62;57.90;94908.81;5118514;28;20195;-66
2022/05/14 07:14:04;;;;;;;10.32;9.43;;;;;;;19.69;57.14;94901.16;5118024;28;20217;-66
2022/05/14 07:16:31;;;;;;;9.75;8.75;;;;;;;19.73;57.22;94898.31;5118370;28;20211;-67
2022/05/14 07:18:58;;;;;;;10.15;9.25;;;;;;;19.76;56.50;94900.28;5118201;28;20198;-67
2022/05/14 07:21:27;;;;;;;9.52;8.63;;;;;;;19.79;56.88;94910.66;5119173;28;20208;-66
2022/05/14 07:23:54;;;;;;;10.63;9.52;;;;;;;19.85;56.41;94910.97;5119153;28;20195;-67
2022/05/14 07:26:20;;;;;;;10.30;9.30;;;;;;;19.83;56.09;94908.59;5118419;28;20223;-71
2022/05/14 07:28:47;;;;;;;10.75;9.50;;;;;;;19.81;56.17;94913.03;5118486;28;20192;-68
2022/05/14 07:31:14;;;;;;;10.48;9.43;;;;;;;19.82;56.39;94912.59;5117962;28;20188;-69
2022/05/14 07:33:41;;;;;;;10.15;9.30;;;;;;;19.83;56.39;94913.41;5118493;28;20196;-67
2022/05/14 07:36:12;;;;;;;10.52;9.52;;;;;;;19.82;56.39;94918.19;5117682;28;20192;-69
2022/05/14 07:38:40;;;;;;;9.52;8.73;;;;;;;19.83;56.48;94916.22;5117802;28;20207;-67
2022/05/14 07:41:08;;;;;;;10.02;8.90;;;;;;;19.87;56.28;94916.97;5117123;28;20243;-66
2022/05/14 07:43:36;;;;;;;9.90;8.93;;;;;;;19.88;55.99;94919.34;5118413;28;20192;-66
2022/05/14 07:46:06;;;;;;;11.13;10.05;;;;;;;19.95;56.18;94918.47;5118546;28;20183;-66
2022/05/14 07:48:35;;;;;;;10.07;9.10;;;;;;;20.01;56.29;94916.81;5118519;28;20188;-66
2022/05/14 07:51:04;;;;;;;10.68;9.60;;;;;;;20.16;57.01;94923.03;5118898;28;20188;-67
2022/05/14 07:53:31;;;;;;;10.32;9.40;;;;;;;20.27;55.64;94918.09;5118123;28;20207;-67
2022/05/14 07:56:01;;;;;;;10.32;9.32;;;;;;;20.38;55.79;94913.13;5118851;28;20229;-66
2022/05/14 07:58:28;;;;;;;10.45;9.55;;;;;;;20.47;55.27;94917.41;5117541;28;20192;-66
2022/05/14 08:00:56;;;;;;;10.80;9.40;;;;;;;20.49;55.64;94920.63;5118313;28;20208;-66
2022/05/14 08:03:24;;;;;;;10.45;8.95;;;;;;;20.51;54.92;94918.19;5118506;28;20206;-66
2022/05/14 08:05:51;;;;;;;9.65;8.70;;;;;;;20.53;54.78;94924.97;5117199;28;20202;-66
2022/05/14 08:08:18;;;;;;;10.23;9.32;;;;;;;20.59;55.03;94928.13;5117861;28;20196;-66
2022/05/14 08:10:44;;;;;;;9.75;8.85;;;;;;;20.68;55.23;94920.75;5118725;28;20223;-66
2022/05/14 08:13:14;;;;;;;9.85;8.90;;;;;;;20.77;55.14;94922.22;5119603;28;20184;-66
2022/05/14 08:15:41;;;;;;;10.20;9.20;;;;;;;20.83;55.11;94926.16;5117372;28;20200;-66
2022/05/14 08:18:08;;;;;;;10.38;9.38;;;;;;;20.95;55.47;94922.75;5117684;28;20187;-66
2022/05/14 08:20:35;;;;;;;10.68;9.55;;;;;;;21.08;55.38;94918.16;5117059;28;20594;-66
2022/05/14 08:25:49;;;;;;;10.15;9.18;;;;;;;21.21;53.61;94904.34;5117824;28;20207;-65
2022/05/14 08:28:17;;;;;;;10.30;9.23;;;;;;;21.43;54.60;94901.22;5116875;28;20195;-66
2022/05/14 08:30:44;;;;;;;10.95;9.95;;;;;;;21.53;53.93;94895.41;5118428;28;20187;-66
2022/05/14 08:33:11;;;;;;;11.48;10.38;;;;;;;21.67;53.19;94902.75;5118434;28;20192;-66
2022/05/14 08:35:38;;;;;;;11.30;10.10;;;;;;;21.72;54.38;94898.69;5118308;28;20203;-66
2022/05/14 08:38:06;;;;;;;11.02;9.93;;;;;;;21.92;54.58;94901.50;5118946;28;20195;-66
2022/05/14 08:40:37;;;;;;;10.48;9.38;;;;;;;21.96;53.31;94905.03;5119375;28;20312;-66
2022/05/14 08:43:08;;;;;;;11.45;9.90;;;;;;;21.99;52.72;94901.34;5118901;28;20260;-66
2022/05/14 08:45:38;;;;;;;12.07;10.80;;;;;;;22.04;52.34;94904.47;5118981;28;20203;-66
2022/05/14 08:48:09;;;;;;;10.15;9.25;;;;;;;22.04;51.54;94898.84;5117927;28;20203;-66
2022/05/14 08:50:37;;;;;;;10.32;9.32;;;;;;;22.07;51.52;94906.41;5118013;28;20196;-66
2022/05/14 08:53:07;;;;;;;10.63;9.20;;;;;;;22.18;52.61;94892.16;5117927;28;20188;-66
2022/05/14 08:55:40;;;;;;;9.90;8.93;;;;;;;22.28;52.01;94905.22;5118091;28;20218;-66
2022/05/14 08:58:14;;;;;;;10.70;9.25;;;;;;;22.34;51.26;94892.25;5116823;28;20203;-66
2022/05/14 09:00:43;;;;;;;9.80;8.65;;;;;;;22.37;50.34;94884.97;5117037;28;20202;-66
2022/05/14 09:03:09;;;;;;;10.95;8.55;;;;;;;22.51;51.08;94890.28;5117230;28;20223;-66
2022/05/14 09:05:38;;;;;;;9.15;8.40;;;;;;;22.62;51.09;94886.44;5117432;28;20208;-66
2022/05/14 09:08:07;;;;;;;9.82;8.82;;;;;;;22.70;49.98;94890.69;5100111;28;20304;-66
2022/05/14 09:10:37;;;;;;;8.82;7.95;;;;;;;22.84;50.12;94907.22;5117442;28;20227;-66
2022/05/14 09:13:14;;;;;;;9.25;8.45;;;;;;;23.04;50.11;94910.78;5117396;28;20275;-66
2022/05/14 09:15:47;;;;;;;9.15;8.35;;;;;;;23.15;49.10;94906.94;5117976;28;20190;-66
2022/05/14 09:18:15;;;;;;;9.13;8.23;;;;;;;23.24;48.27;94902.28;5117069;28;20200;-66
2022/05/14 09:20:45;;;;;;;8.57;7.78;;;;;;;23.35;48.58;94913.28;5116049;28;20199;-66
2022/05/14 09:23:12;;;;;;;9.07;8.25;;;;;;;23.58;48.92;94912.28;5117806;28;20179;-66
2022/05/14 09:25:41;;;;;;;8.88;7.97;;;;;;;23.86;47.43;94913.59;5117547;28;20203;-66
2022/05/14 09:28:11;;;;;;;8.88;8.00;;;;;;;23.64;47.51;94906.91;5117825;28;20180;-66
2022/05/14 09:30:39;;;;;;;8.93;8.02;;;;;;;23.40;48.60;94909.94;5118123;28;20187;-66
2022/05/14 09:33:11;;;;;;;9.00;8.18;;;;;;;23.14;48.65;94905.34;5118881;28;20180;-66
2022/05/14 09:35:38;;;;;;;8.60;7.80;;;;;;;22.96;49.70;94911.41;5118935;28;20214;-66
2022/05/14 09:38:10;;;;;;;8.93;8.13;;;;;;;22.81;49.45;94913.72;5118747;28;20212;-66
2022/05/14 09:40:38;;;;;;;8.60;7.78;;;;;;;22.65;49.53;94908.03;5118377;28;20239;-66
2022/05/14 09:43:11;;;;;;;10.55;7.85;;;;;;;22.51;50.01;94907.16;5116380;28;20215;-66
2022/05/14 09:45:40;;;;;;;8.73;7.95;;;;;;;22.40;51.13;94914.19;5116442;28;20203;-66
2022/05/14 09:48:20;;;;;;;9.27;8.27;;;;;;;22.27;52.67;94902.84;5116615;28;20203;-65
2022/05/14 09:50:49;;;;;;;9.50;8.52;;;;;;;22.20;52.90;94903.00;5117454;28;20207;-66
2022/05/14 09:53:27;;;;;;;11.30;8.90;;;;;;;22.13;53.20;94900.28;5116816;28;20200;-66
2022/05/14 09:56:21;;;;;;;8.85;8.10;;;;;;;22.04;52.97;94903.66;5116497;28;20195;-66
2022/05/14 09:58:54;;;;;;;9.65;8.73;;;;;;;21.99;53.57;94901.34;5110313;28;20204;-66
2022/05/14 10:01:28;;;;;;;10.35;8.90;;;;;;;21.94;53.65;94908.28;5115736;28;20647;-66
2022/05/14 10:04:17;;;;;;;9.20;8.38;;;;;;;21.92;53.50;94909.94;5116384;28;20251;-67
2022/05/14 10:06:50;;;;;;;8.93;8.02;;;;;;;21.87;53.57;94914.81;5115510;28;20210;-67
2022/05/14 10:09:24;;;;;;;9.77;8.77;;;;;;;21.86;54.54;94913.25;5116307;28;20316;-67
2022/05/14 10:11:55;;;;;;;11.73;8.48;;;;;;;21.86;54.65;94916.03;5116957;28;20217;-66
2022/05/14 10:14:35;;;;;;;9.30;8.38;;;;;;;21.91;53.57;94919.56;5117988;28;20263;-66
2022/05/14 10:17:15;;;;;;;8.15;7.43;;;;;;;22.07;52.77;94916.84;5117899;28;20199;-66
2022/05/14 10:20:05;;;;;;;8.75;7.93;;;;;;;22.41;53.15;94910.19;5120325;28;20207;-66
2022/05/14 10:28:13;;;;;;;8.55;7.75;;;;;;;22.73;50.92;94910.28;5119105;28;20195;-66
2022/05/14 10:30:48;;;;;;;8.25;7.40;;;;;;;22.81;50.97;94908.88;5118947;28;20223;-66
2022/05/14 10:33:19;;;;;;;9.05;8.15;;;;;;;22.69;52.40;94917.97;5118905;28;20207;-65
2022/05/14 10:35:56;;;;;;;9.10;8.30;;;;;;;22.67;51.89;94914.03;5118823;28;20199;-65
2022/05/14 10:38:25;;;;;;;8.40;7.68;;;;;;;22.61;51.86;94915.78;5118886;28;20290;-67
2022/05/14 10:40:55;;;;;;;8.10;7.35;;;;;;;22.53;51.30;94912.31;5120049;28;20246;-67
2022/05/14 10:43:31;;;;;;;8.20;7.43;;;;;;;22.43;51.28;94913.34;5120162;28;20217;-66
2022/05/14 10:45:59;;;;;;;7.50;6.90;;;;;;;22.31;50.03;94909.19;5118797;28;20191;-69
2022/05/14 10:48:35;;;;;;;7.68;7.07;;;;;;;22.22;50.15;94912.56;5119056;28;20196;-67
2022/05/14 10:51:05;;;;;;;8.15;6.82;;;;;;;22.19;50.56;94909.84;5120030;28;20179;-67
2022/05/14 10:53:33;;;;;;;7.65;7.05;;;;;;;22.17;51.09;94901.03;5118895;28;20192;-67
2022/05/14 10:56:03;;;;;;;7.70;6.95;;;;;;;22.20;50.11;94892.53;5120255;28;20198;-67
2022/05/14 10:58:39;;;;;;;9.38;6.22;;;;;;;22.34;49.97;94885.84;5118716;28;20200;-67
2022/05/14 11:01:08;;;;;;;6.85;6.20;;;;;;;22.54;49.45;94880.97;5119511;28;20180;-67
2022/05/14 11:03:36;;;;;;;6.22;5.72;;;;;;;22.76;48.63;94884.09;5118101;28;20653;-67
2022/05/14 11:06:27;;;;;;;6.47;5.93;;;;;;;23.15;48.79;94882.41;5119187;28;20201;-66
2022/05/14 11:08:54;;;;;;;7.53;6.90;;;;;;;23.56;48.29;94875.34;5118174;28;20207;-67
2022/05/14 11:11:25;;;;;;;7.60;6.95;;;;;;;23.75;48.58;94868.03;5118846;28;20192;-67
2022/05/14 11:14:01;;;;;;;8.32;7.63;;;;;;;23.98;47.84;94867.78;5118598;28;20271;-67
2022/05/14 11:16:43;;;;;;;8.45;7.75;;;;;;;24.03;47.54;94867.22;5118001;28;20223;-66
2022/05/14 11:19:11;;;;;;;8.43;7.72;;;;;;;24.08;46.92;94868.72;5118332;28;20188;-67
2022/05/14 11:21:41;;;;;;;9.00;8.20;;;;;;;24.09;46.89;94869.53;5118222;28;20208;-67
2022/05/14 11:24:11;;;;;;;9.07;8.23;;;;;;;23.98;46.89;94867.00;5119067;28;20192;-66
2022/05/14 11:26:46;;;;;;;10.63;9.05;;;;;;;23.80;48.08;94870.31;5118047;28;20291;-67
2022/05/14 11:29:16;;;;;;;9.57;8.77;;;;;;;23.64;48.42;94870.31;5117080;28;20190;-67
2022/05/14 11:31:52;;;;;;;9.20;8.32;;;;;;;23.47;48.75;94861.91;5118887;28;20187;-66
2022/05/14 11:34:22;;;;;;;9.13;8.23;;;;;;;23.34;48.44;94863.06;5118620;28;20187;-66
2022/05/14 11:36:53;;;;;;;8.63;7.82;;;;;;;23.23;48.74;94866.13;5118784;28;20180;-66
2022/05/14 11:39:39;;;;;;;8.82;7.97;;;;;;;23.30;48.49;94854.69;5117712;28;20217;-66
2022/05/14 11:42:26;;;;;;;8.52;7.72;;;;;;;23.30;47.75;94851.88;5117526;28;20231;-66
2022/05/14 11:44:57;;;;;;;8.60;7.90;;;;;;;23.25;47.80;94855.25;5118691;28;20278;-66
2022/05/14 11:47:42;;;;;;;8.20;7.50;;;;;;;23.13;47.37;94851.13;5118600;28;20181;-67
2022/05/14 11:50:10;;;;;;;8.98;8.02;;;;;;;23.05;47.98;94867.34;5117421;28;20198;-67
2022/05/14 11:52:49;;;;;;;8.07;7.32;;;;;;;22.97;47.74;94873.59;5118275;28;20207;-66
2022/05/14 11:55:19;;;;;;;9.48;7.30;;;;;;;22.88;47.18;94871.38;5117908;28;20218;-66
2022/05/14 11:57:49;;;;;;;8.57;7.78;;;;;;;22.81;48.06;94879.97;5118219;28;20199;-66